createdAt,value
2023-04-28T00:00:24.163Z,100758.63
2023-04-28T00:03:28.610Z,100680.19
2023-04-28T00:06:31.720Z,100729.13
2023-04-28T00:09:34.825Z,100699.16
2023-04-28T00:12:38.660Z,100652.25
2023-04-28T00:15:41.990Z,100695.41
2023-04-28T00:18:45.228Z,100687.72
2023-04-28T00:21:48.388Z,100711.13
2023-04-28T00:24:51.362Z,100725.41
2023-04-28T00:27:54.763Z,100685.81
2023-04-28T00:30:57.953Z,100660.88
2023-04-28T00:34:01.738Z,100718.88
2023-04-28T00:37:05.109Z,100737.38
2023-04-28T00:40:08.688Z,100638.88
2023-04-28T00:43:12.002Z,100692.91
2023-04-28T00:46:36.061Z,100748.16
2023-04-28T00:49:39.268Z,100623.31
2023-04-28T00:52:43.261Z,100699.28
2023-04-28T00:55:48.130Z,100677.22
2023-04-28T00:58:51.271Z,100661.00
2023-04-28T01:01:54.244Z,100701.97
2023-04-28T01:04:58.576Z,100626.16
2023-04-28T01:08:01.908Z,100702.91
2023-04-28T01:11:05.264Z,100705.22
2023-04-28T01:14:28.140Z,100734.03
2023-04-28T01:17:31.309Z,100658.84
2023-04-28T01:20:34.465Z,100692.25
2023-04-28T01:23:37.665Z,100716.63
2023-04-28T01:26:40.891Z,100670.81
2023-04-28T01:29:43.850Z,100687.63
2023-04-28T01:32:46.897Z,100703.84
2023-04-28T01:35:50.202Z,100647.75
2023-04-28T01:38:53.279Z,100678.22
2023-04-28T01:41:56.433Z,100664.38
2023-04-28T01:45:00.382Z,100681.03
2023-04-28T01:48:03.581Z,100667.97
2023-04-28T01:51:06.815Z,100718.75
2023-04-28T01:54:09.800Z,100689.88
2023-04-28T01:57:12.881Z,100736.22
2023-04-28T02:00:16.260Z,100690.22
2023-04-28T02:03:24.454Z,100645.94
2023-04-28T02:06:28.197Z,100715.81
2023-04-28T02:09:34.139Z,100656.38
2023-04-28T02:12:37.332Z,100683.88
2023-04-28T02:15:41.929Z,100704.72
2023-04-28T02:18:45.232Z,100729.38
2023-04-28T02:21:48.205Z,100655.53
2023-04-28T02:24:51.659Z,100677.84
2023-04-28T02:27:54.817Z,100651.41
2023-04-28T02:31:16.600Z,100667.59
2023-04-28T02:34:19.742Z,100655.53
2023-04-28T02:37:23.367Z,100726.31
2023-04-28T02:40:27.573Z,100668.91
2023-04-28T02:43:33.906Z,100662.38
2023-04-28T02:46:37.251Z,100704.41
2023-04-28T02:49:40.872Z,100713.34
2023-04-28T02:52:44.098Z,100691.19
2023-04-28T02:55:47.176Z,100732.66
2023-04-28T02:58:50.986Z,100773.78
2023-04-28T03:01:53.944Z,100691.78
2023-04-28T03:04:57.366Z,100689.25
2023-04-28T03:08:00.872Z,100676.97
2023-04-28T03:11:04.062Z,100697.81
2023-04-28T03:14:07.747Z,100682.66
2023-04-28T03:17:10.838Z,100724.75
2023-04-28T03:20:14.214Z,100672.94
2023-04-28T03:23:17.535Z,100644.69
2023-04-28T03:26:21.129Z,100694.00
2023-04-28T03:29:26.086Z,100658.66
2023-04-28T03:32:29.323Z,100712.31
2023-04-28T03:35:32.431Z,100733.03
2023-04-28T03:38:35.993Z,100688.28
2023-04-28T03:41:39.736Z,100700.16
2023-04-28T03:45:02.027Z,100708.03
2023-04-28T03:48:06.117Z,100709.94
2023-04-28T03:51:09.858Z,100671.47
2023-04-28T03:54:12.810Z,100726.03
2023-04-28T03:57:15.762Z,100697.13
2023-04-28T04:00:18.963Z,100766.63
2023-04-28T04:03:26.795Z,100727.53
2023-04-28T04:06:32.552Z,100716.00
2023-04-28T04:09:35.754Z,100737.38
2023-04-28T04:12:38.805Z,100676.44
2023-04-28T04:15:41.917Z,100720.31
2023-04-28T04:18:45.013Z,100693.53
2023-04-28T04:21:55.966Z,100689.75
2023-04-28T04:24:59.323Z,100690.91
2023-04-28T04:28:03.170Z,100735.56
2023-04-28T04:31:06.647Z,100723.38
2023-04-28T04:34:09.496Z,100699.53
2023-04-28T04:37:12.768Z,100700.31
2023-04-28T04:40:22.317Z,100716.34
2023-04-28T04:43:26.391Z,100718.25
2023-04-28T04:46:29.568Z,100714.41
2023-04-28T04:49:32.856Z,100675.50
2023-04-28T04:52:35.916Z,100712.59
2023-04-28T04:55:39.348Z,100725.78
2023-04-28T04:58:44.741Z,100685.06
2023-04-28T05:02:23.552Z,100720.56
2023-04-28T05:05:27.004Z,100668.38
2023-04-28T05:08:54.202Z,100714.97
2023-04-28T05:11:58.086Z,100746.03
2023-04-28T05:15:01.163Z,100684.22
2023-04-28T05:18:09.936Z,100730.16
2023-04-28T05:21:13.774Z,100734.06
2023-04-28T05:24:17.574Z,100771.78
2023-04-28T05:27:20.692Z,100709.59
2023-04-28T05:30:24.598Z,100778.09
2023-04-28T05:33:27.601Z,100776.16
2023-04-28T05:36:30.342Z,100787.50
2023-04-28T05:39:33.396Z,100780.34
2023-04-28T05:42:39.554Z,100686.41
2023-04-28T05:45:42.819Z,100726.16
2023-04-28T05:48:46.497Z,100708.34
2023-04-28T05:51:52.085Z,100764.00
2023-04-28T05:54:55.067Z,100742.56
2023-04-28T05:57:57.817Z,100786.34
2023-04-28T06:01:00.916Z,100778.47
2023-04-28T06:04:04.171Z,100789.81
2023-04-28T06:07:07.960Z,100736.84
2023-04-28T06:10:11.695Z,100768.59
2023-04-28T06:13:14.812Z,100741.50
2023-04-28T06:16:18.959Z,100755.59
2023-04-28T06:19:22.562Z,100771.91
2023-04-28T06:22:26.527Z,100729.63
2023-04-28T06:25:29.865Z,100779.47
2023-04-28T06:28:32.867Z,100782.84
2023-04-28T06:31:35.764Z,100691.59
2023-04-28T06:34:38.627Z,100731.63
2023-04-28T06:37:42.781Z,100701.28
2023-04-28T06:40:46.266Z,100749.91
2023-04-28T06:43:49.450Z,100767.09
2023-04-28T06:46:58.450Z,100753.91
2023-04-28T06:50:02.542Z,100719.56
2023-04-28T06:53:12.109Z,100733.50
2023-04-28T06:56:15.077Z,100727.53
2023-04-28T06:59:18.188Z,100704.63
2023-04-28T07:02:21.145Z,100765.78
2023-04-28T07:05:24.644Z,100721.38
2023-04-28T07:08:27.791Z,100781.66
2023-04-28T07:11:32.900Z,100743.41
2023-04-28T07:14:36.111Z,100721.66
2023-04-28T07:17:39.368Z,100729.09
2023-04-28T07:20:42.482Z,100778.25
2023-04-28T07:23:46.068Z,100696.53
2023-04-28T07:26:48.880Z,100763.72
2023-04-28T07:29:51.831Z,100747.25
2023-04-28T07:32:58.928Z,100741.25
2023-04-28T07:36:01.816Z,100727.28
2023-04-28T07:39:05.095Z,100712.66
2023-04-28T07:42:07.814Z,100751.38
2023-04-28T07:45:13.294Z,100702.69
2023-04-28T07:48:16.343Z,100733.13
2023-04-28T07:51:19.177Z,100741.41
2023-04-28T07:54:22.381Z,100742.81
2023-04-28T07:57:25.984Z,100702.13
2023-04-28T08:00:28.878Z,100674.41
2023-04-28T08:03:31.820Z,100657.25
2023-04-28T08:06:36.447Z,100654.41
2023-04-28T08:09:41.737Z,100661.13
2023-04-28T08:12:45.602Z,100664.63
2023-04-28T08:15:49.937Z,100695.09
2023-04-28T08:18:52.914Z,100702.66
2023-04-28T08:21:56.031Z,100693.69
2023-04-28T08:24:59.220Z,100623.00
2023-04-28T08:28:03.764Z,100677.94
2023-04-28T08:31:06.573Z,100667.88
2023-04-28T08:34:09.729Z,100622.59
2023-04-28T08:37:12.569Z,100626.88
2023-04-28T08:40:15.593Z,100624.75
2023-04-28T08:43:18.529Z,100602.81
2023-04-28T08:46:22.449Z,100649.19
2023-04-28T08:49:31.151Z,100618.16
2023-04-28T08:52:34.826Z,100603.22
2023-04-28T08:55:39.023Z,100621.41
2023-04-28T08:58:41.999Z,100612.34
2023-04-28T09:01:48.940Z,100683.09
2023-04-28T09:04:52.263Z,100665.53
2023-04-28T09:07:55.944Z,100649.34
2023-04-28T09:11:13.724Z,100664.66
2023-04-28T09:14:16.813Z,100687.72
2023-04-28T09:17:19.591Z,100663.41
2023-04-28T09:20:23.609Z,100685.00
2023-04-28T09:23:26.743Z,100631.03
2023-04-28T09:26:48.572Z,100631.22
2023-04-28T09:29:54.636Z,100631.41
2023-04-28T09:33:11.271Z,100618.19
2023-04-28T09:36:26.718Z,100607.25
2023-04-28T09:39:31.818Z,100627.47
2023-04-28T09:42:42.265Z,100652.84
2023-04-28T09:45:45.987Z,100652.00
2023-04-28T09:48:49.245Z,100624.22
2023-04-28T09:51:52.050Z,100607.50
2023-04-28T09:54:59.865Z,100590.22
2023-04-28T09:58:06.239Z,100654.69
2023-04-28T10:01:11.622Z,100656.63
2023-04-28T10:04:15.396Z,100606.84
2023-04-28T10:07:20.835Z,100610.53
2023-04-28T10:10:25.354Z,100578.28
2023-04-28T10:13:28.420Z,100583.44
2023-04-28T10:16:33.331Z,100601.66
2023-04-28T10:19:37.613Z,100589.03
2023-04-28T10:22:53.936Z,100628.97
2023-04-28T10:26:03.400Z,100610.09
2023-04-28T10:29:09.872Z,100575.97
2023-04-28T10:32:21.223Z,100571.06
2023-04-28T10:35:37.707Z,100603.31
2023-04-28T10:39:11.237Z,100591.34
2023-04-28T10:42:51.493Z,100580.75
2023-04-28T10:45:56.438Z,100572.09
2023-04-28T10:49:00.053Z,100542.91
2023-04-28T10:52:22.730Z,100557.56
2023-04-28T10:55:33.776Z,100538.75
2023-04-28T10:58:42.269Z,100545.00
2023-04-28T11:01:45.949Z,100516.41
2023-04-28T11:05:12.406Z,100540.66
2023-04-28T11:08:27.187Z,100538.47
2023-04-28T11:11:30.959Z,100485.56
2023-04-28T11:14:37.243Z,100530.66
2023-04-28T11:17:43.034Z,100470.25
2023-04-28T11:20:49.493Z,100466.75
2023-04-28T11:23:52.673Z,100512.09
2023-04-28T11:26:55.903Z,100531.56
2023-04-28T11:29:58.587Z,100470.81
2023-04-28T11:33:01.388Z,100516.09
2023-04-28T11:36:05.618Z,100511.56
2023-04-28T11:39:10.055Z,100458.69
2023-04-28T11:42:12.958Z,100499.59
2023-04-28T11:45:15.945Z,100502.72
2023-04-28T11:48:22.936Z,100433.47
2023-04-28T11:51:33.974Z,100468.53
2023-04-28T11:54:37.411Z,100434.50
2023-04-28T11:57:40.366Z,100474.38
2023-04-28T12:00:43.650Z,100434.03
2023-04-28T12:03:47.459Z,100464.53
2023-04-28T12:06:59.362Z,100463.72
2023-04-28T12:10:13.024Z,100453.84
2023-04-28T12:13:16.936Z,100440.47
2023-04-28T12:16:39.333Z,100462.22
2023-04-28T12:19:45.851Z,100455.09
2023-04-28T12:22:50.974Z,100438.31
2023-04-28T12:25:54.036Z,100426.69
2023-04-28T12:28:56.849Z,100350.25
2023-04-28T12:31:59.747Z,100360.16
2023-04-28T12:35:02.645Z,100356.66
2023-04-28T12:38:05.262Z,100345.91
2023-04-28T12:41:08.098Z,100372.59
2023-04-28T12:44:11.088Z,100392.09
2023-04-28T12:47:13.796Z,100375.34
2023-04-28T12:50:16.425Z,100385.84
2023-04-28T12:53:19.387Z,100374.63
2023-04-28T12:56:22.054Z,100374.50
2023-04-28T12:59:24.933Z,100364.63
2023-04-28T13:02:28.465Z,100376.47
2023-04-28T13:05:32.181Z,100370.03
2023-04-28T13:08:35.414Z,100330.47
2023-04-28T13:11:38.680Z,100354.38
2023-04-28T13:14:41.291Z,100339.38
2023-04-28T13:17:46.428Z,100334.97
2023-04-28T13:20:49.433Z,100343.22
2023-04-28T13:23:52.065Z,100346.91
2023-04-28T13:26:54.618Z,100343.47
2023-04-28T13:29:59.423Z,100352.03
2023-04-28T13:33:02.195Z,100357.44
2023-04-28T13:36:05.461Z,100344.69
2023-04-28T13:39:11.711Z,100341.25
2023-04-28T13:42:17.590Z,100338.09
2023-04-28T13:45:23.515Z,100337.09
2023-04-28T13:48:27.874Z,100359.75
2023-04-28T13:51:33.115Z,100347.53
2023-04-28T13:54:35.827Z,100344.44
2023-04-28T13:57:38.610Z,100323.53
2023-04-28T14:00:41.319Z,100332.31
2023-04-28T14:03:44.773Z,100324.31
2023-04-28T14:06:47.642Z,100308.16
2023-04-28T14:09:50.249Z,100310.41
2023-04-28T14:12:52.854Z,100313.50
2023-04-28T14:15:59.102Z,100312.81
2023-04-28T14:19:02.484Z,100304.09
2023-04-28T14:22:05.200Z,100256.03
2023-04-28T14:25:08.193Z,100297.91
2023-04-28T14:28:11.340Z,100290.38
2023-04-28T14:31:14.174Z,100262.94
2023-04-28T14:34:16.991Z,100292.19
2023-04-28T14:37:20.127Z,100267.31
2023-04-28T14:40:22.985Z,100277.75
2023-04-28T14:43:26.077Z,100274.88
2023-04-28T14:46:28.855Z,100247.78
2023-04-28T14:49:31.502Z,100276.34
2023-04-28T14:52:34.421Z,100279.41
2023-04-28T14:55:37.140Z,100264.63
2023-04-28T14:58:39.818Z,100276.78
2023-04-28T15:01:42.722Z,100256.63
2023-04-28T15:04:46.427Z,100270.63
2023-04-28T15:07:49.344Z,100246.44
2023-04-28T15:10:52.211Z,100273.59
2023-04-28T15:13:55.132Z,100274.72
2023-04-28T15:16:57.904Z,100273.09
2023-04-28T15:20:00.572Z,100274.16
2023-04-28T15:23:03.313Z,100285.44
2023-04-28T15:26:06.713Z,100256.59
2023-04-28T15:29:11.305Z,100288.38
2023-04-28T15:32:14.622Z,100268.16
2023-04-28T15:35:17.484Z,100272.50
2023-04-28T15:38:20.249Z,100260.13
2023-04-28T15:41:22.932Z,100255.31
2023-04-28T15:44:25.564Z,100249.38
2023-04-28T15:47:29.493Z,100260.44
2023-04-28T15:50:32.334Z,100252.06
2023-04-28T15:53:35.301Z,100244.28
2023-04-28T15:56:37.957Z,100231.59
2023-04-28T15:59:41.220Z,100234.78
2023-04-28T16:02:45.076Z,100243.91
2023-04-28T16:05:47.953Z,100224.03
2023-04-28T16:08:50.608Z,100228.38
2023-04-28T16:11:53.256Z,100208.72
2023-04-28T16:14:56.385Z,100215.72
2023-04-28T16:17:59.397Z,100220.81
2023-04-28T16:21:02.132Z,100219.16
2023-04-28T16:24:05.781Z,100202.97
2023-04-28T16:27:08.617Z,100212.38
2023-04-28T16:30:11.888Z,100207.78
2023-04-28T16:33:14.816Z,100200.00
2023-04-28T16:36:17.924Z,100178.47
2023-04-28T16:39:20.573Z,100195.34
2023-04-28T16:42:23.592Z,100199.09
2023-04-28T16:45:26.332Z,100187.28
2023-04-28T16:48:28.995Z,100186.41
2023-04-28T16:51:35.145Z,100165.13
2023-04-28T16:54:37.726Z,100164.56
2023-04-28T16:57:40.548Z,100175.31
2023-04-28T17:00:43.253Z,100164.78
2023-04-28T17:03:46.419Z,100124.09
2023-04-28T17:06:49.772Z,100163.91
2023-04-28T17:09:52.752Z,100112.75
2023-04-28T17:12:55.653Z,100104.34
2023-04-28T17:15:58.867Z,100146.56
2023-04-28T17:19:02.618Z,100143.06
2023-04-28T17:22:05.305Z,100117.94
2023-04-28T17:25:08.561Z,100130.81
2023-04-28T17:28:11.678Z,100125.38
2023-04-28T17:31:14.778Z,100122.69
2023-04-28T17:34:17.945Z,100116.41
2023-04-28T17:37:20.530Z,100120.63
2023-04-28T17:40:27.003Z,100103.88
2023-04-28T17:43:30.790Z,100123.22
2023-04-28T17:46:33.486Z,100123.91
2023-04-28T17:49:38.610Z,100131.31
2023-04-28T17:52:43.388Z,100098.97
2023-04-28T17:55:46.672Z,100117.94
2023-04-28T17:58:49.390Z,100142.38
2023-04-28T18:01:56.440Z,100127.16
2023-04-28T18:04:59.220Z,100155.16
2023-04-28T18:08:05.516Z,100181.72
2023-04-28T18:11:10.172Z,100170.75
2023-04-28T18:14:15.540Z,100181.84
2023-04-28T18:17:18.483Z,100169.56
2023-04-28T18:20:21.193Z,100189.69
2023-04-28T18:23:24.031Z,100195.22
2023-04-28T18:26:26.995Z,100201.22
2023-04-28T18:29:29.814Z,100191.94
2023-04-28T18:32:34.241Z,100187.59
2023-04-28T18:35:37.329Z,100151.19
2023-04-28T18:38:40.362Z,100157.41
2023-04-28T18:41:44.591Z,100157.59
2023-04-28T18:44:47.432Z,100160.84
2023-04-28T18:47:50.170Z,100167.00
2023-04-28T18:50:54.058Z,100178.72
2023-04-28T18:53:57.023Z,100172.91
2023-04-28T18:57:00.946Z,100148.59
2023-04-28T19:00:05.236Z,100159.19
2023-04-28T19:03:08.245Z,100156.88
2023-04-28T19:06:11.795Z,100175.66
2023-04-28T19:09:14.804Z,100177.66
2023-04-28T19:12:17.938Z,100177.25
2023-04-28T19:15:20.723Z,100172.47
2023-04-28T19:18:24.010Z,100161.47
2023-04-28T19:21:27.776Z,100174.03
2023-04-28T19:24:30.456Z,100165.19
2023-04-28T19:27:40.970Z,100160.59
2023-04-28T19:30:43.589Z,100157.22
2023-04-28T19:33:46.261Z,100143.44
2023-04-28T19:36:48.966Z,100161.41
2023-04-28T19:39:51.994Z,100126.63
2023-04-28T19:42:55.689Z,100153.41
2023-04-28T19:45:58.536Z,100157.75
2023-04-28T19:49:01.606Z,100141.41
2023-04-28T19:52:05.562Z,100147.63
2023-04-28T19:55:09.690Z,100138.19
2023-04-28T19:58:13.549Z,100151.59
2023-04-28T20:01:16.463Z,100145.69
2023-04-28T20:04:19.597Z,100138.34
2023-04-28T20:07:22.917Z,100112.13
2023-04-28T20:10:25.768Z,100124.78
2023-04-28T20:13:28.567Z,100119.25
2023-04-28T20:16:31.578Z,100061.38
2023-04-28T20:19:35.185Z,100107.81
2023-04-28T20:22:38.052Z,100096.13
2023-04-28T20:25:41.398Z,100092.25
2023-04-28T20:28:45.993Z,100079.94
2023-04-28T20:31:48.995Z,100095.78
2023-04-28T20:34:52.179Z,100111.00
2023-04-28T20:37:55.198Z,100104.84
2023-04-28T20:40:59.297Z,100116.41
2023-04-28T20:44:02.337Z,100122.22
2023-04-28T20:47:05.108Z,100105.56
2023-04-28T20:50:11.515Z,100116.09
2023-04-28T20:53:14.250Z,100119.22
2023-04-28T20:56:16.783Z,100112.66
2023-04-28T20:59:19.423Z,100045.22
2023-04-28T21:02:22.158Z,100106.56
2023-04-28T21:05:24.925Z,100081.69
2023-04-28T21:08:29.882Z,100084.03
2023-04-28T21:11:32.467Z,100101.84
2023-04-28T21:14:36.721Z,100092.34
2023-04-28T21:17:39.401Z,100095.44
2023-04-28T21:20:42.140Z,100043.97
2023-04-28T21:23:45.913Z,100090.00
2023-04-28T21:26:49.055Z,100076.97
2023-04-28T21:29:52.911Z,100080.88
2023-04-28T21:32:55.678Z,100085.66
2023-04-28T21:35:58.819Z,100087.81
2023-04-28T21:39:02.012Z,100073.59
2023-04-28T21:42:04.950Z,100096.75
2023-04-28T21:45:09.567Z,100101.84
2023-04-28T21:48:12.277Z,100107.72
2023-04-28T21:51:15.112Z,100105.88
2023-04-28T21:54:18.071Z,100107.72
2023-04-28T21:57:20.697Z,100113.84
2023-04-28T22:00:24.130Z,100102.19
2023-04-28T22:03:27.323Z,100108.31
2023-04-28T22:06:31.730Z,100097.50
2023-04-28T22:09:34.398Z,100087.66
2023-04-28T22:12:37.075Z,100081.34
2023-04-28T22:15:39.841Z,100102.84
2023-04-28T22:18:42.680Z,100104.81
2023-04-28T22:21:45.566Z,100098.69
2023-04-28T22:24:50.133Z,100096.38
2023-04-28T22:27:52.888Z,100094.84
2023-04-28T22:30:55.726Z,100078.63
2023-04-28T22:33:58.435Z,100081.81
2023-04-28T22:37:01.072Z,100082.09
2023-04-28T22:40:04.853Z,100080.13
2023-04-28T22:43:07.453Z,100077.47
2023-04-28T22:46:10.793Z,100086.53
2023-04-28T22:49:13.612Z,100064.06
2023-04-28T22:52:18.471Z,100080.84
2023-04-28T22:55:21.078Z,100097.19
2023-04-28T22:58:23.816Z,100086.19
2023-04-28T23:01:26.501Z,100086.91
2023-04-28T23:04:30.186Z,100072.66
2023-04-28T23:07:33.110Z,100057.63
2023-04-28T23:10:35.861Z,100075.81
2023-04-28T23:13:38.615Z,100056.13
2023-04-28T23:16:41.515Z,100079.84
2023-04-28T23:19:44.139Z,100054.41
2023-04-28T23:22:46.795Z,100072.44
2023-04-28T23:25:49.548Z,100069.56
2023-04-28T23:28:53.186Z,100081.03
2023-04-28T23:31:55.881Z,100075.22
2023-04-28T23:34:58.608Z,100045.16
2023-04-28T23:38:01.714Z,100051.06
2023-04-28T23:41:05.593Z,100022.00
2023-04-28T23:44:08.816Z,100059.06
2023-04-28T23:47:12.240Z,100060.91
2023-04-28T23:50:14.933Z,100061.94
2023-04-28T23:53:18.040Z,100033.69
2023-04-28T23:56:20.889Z,100045.03
2023-04-28T23:59:23.673Z,100037.06
